AKJ159 VOPB-VANM
Flight info
| Callsign | AKJ159 |
|---|---|
| Flight time | N/A |
| Altitude | 36000 |
| Route | DCT PPB P761 DUMAR L518 HIA W18 PONIP Z5 BEDOL MOLGO2A |
| Aircraft | B738/M-SDGIJ1LRWY/SB1 |
Departure
| Time | N/A |
|---|---|
| Airport | Veer Savarkar International Airport / INS Utkrosh (VOPB) |
Arrival
| Time | 2026-04-11 12:20 |
|---|---|
| Airport | Navi Mumbai International Airport (VANM) |
| Time | Latitude | Longitude | Altitude | Speed | Heading |
|---|---|---|---|---|---|
| 2026-04-11 12:10 | 18.80101 | 73.26860 | 9933 ft | 292 kts | 37° |
| 2026-04-11 12:10 | 18.81699 | 73.28163 | 9304 ft | 290 kts | 38° |
| 2026-04-11 12:10 | 18.83305 | 73.29473 | 8682 ft | 288 kts | 38° |
| 2026-04-11 12:11 | 18.84873 | 73.30753 | 8099 ft | 285 kts | 38° |
| 2026-04-11 12:11 | 18.86452 | 73.32043 | 7507 ft | 283 kts | 38° |
| 2026-04-11 12:11 | 18.88022 | 73.33324 | 7100 ft | 281 kts | 38° |
| 2026-04-11 12:11 | 18.89572 | 73.34592 | 6696 ft | 281 kts | 38° |
| 2026-04-11 12:12 | 18.91121 | 73.35827 | 6419 ft | 276 kts | 36° |
| 2026-04-11 12:12 | 18.92685 | 73.37003 | 6315 ft | 264 kts | 35° |
| 2026-04-11 12:12 | 18.94160 | 73.38091 | 6205 ft | 254 kts | 35° |
| 2026-04-11 12:12 | 18.95599 | 73.39144 | 6054 ft | 247 kts | 35° |
| 2026-04-11 12:13 | 18.97030 | 73.40153 | 5751 ft | 247 kts | 29° |
| 2026-04-11 12:13 | 18.98707 | 73.40768 | 5110 ft | 262 kts | 8° |
| 2026-04-11 12:13 | 19.00549 | 73.40747 | 4567 ft | 268 kts | 347° |
| 2026-04-11 12:13 | 19.02256 | 73.39990 | 4348 ft | 261 kts | 325° |
| 2026-04-11 12:14 | 19.03525 | 73.38652 | 4120 ft | 255 kts | 303° |
| 2026-04-11 12:14 | 19.04190 | 73.36943 | 3918 ft | 251 kts | 280° |
| 2026-04-11 12:14 | 19.04165 | 73.35115 | 3714 ft | 247 kts | 257° |
| 2026-04-11 12:14 | 19.03570 | 73.33435 | 3638 ft | 240 kts | 246° |
| 2026-04-11 12:15 | 19.02834 | 73.31842 | 3636 ft | 241 kts | 243° |
| 2026-04-11 12:15 | 19.01950 | 73.30318 | 3639 ft | 241 kts | 240° |
| 2026-04-11 12:15 | 19.01257 | 73.28719 | 3563 ft | 235 kts | 256° |
| 2026-04-11 12:15 | 19.00987 | 73.27029 | 3359 ft | 232 kts | 266° |
| 2026-04-11 12:16 | 19.00852 | 73.25359 | 3295 ft | 221 kts | 265° |
| 2026-04-11 12:16 | 19.00666 | 73.23762 | 2982 ft | 220 kts | 263° |
| 2026-04-11 12:16 | 19.00448 | 73.22173 | 2658 ft | 213 kts | 263° |
| 2026-04-11 12:16 | 19.00252 | 73.20667 | 2402 ft | 194 kts | 264° |
| 2026-04-11 12:17 | 19.00086 | 73.19313 | 2123 ft | 180 kts | 265° |
| 2026-04-11 12:17 | 18.99926 | 73.18052 | 1905 ft | 166 kts | 265° |
| 2026-04-11 12:17 | 18.99778 | 73.16885 | 1702 ft | 155 kts | 266° |
| 2026-04-11 12:17 | 18.99637 | 73.15750 | 1514 ft | 153 kts | 265° |
| 2026-04-11 12:18 | 18.99494 | 73.14635 | 1311 ft | 153 kts | 265° |
| 2026-04-11 12:18 | 18.99353 | 73.13522 | 1113 ft | 152 kts | 265° |
| 2026-04-11 12:18 | 18.99060 | 73.11304 | 632 ft | 149 kts | 264° |
| 2026-04-11 12:19 | 18.98918 | 73.10222 | 470 ft | 148 kts | 263° |
| 2026-04-11 12:19 | 18.98773 | 73.09142 | 306 ft | 149 kts | 264° |
| 2026-04-11 12:19 | 18.98646 | 73.08044 | 127 ft | 151 kts | 264° |
| 2026-04-11 12:19 | 18.98518 | 73.06965 | 49 ft | 127 kts | 262° |
| 2026-04-11 12:20 | 18.98433 | 73.06296 | 49 ft | 58 kts | 261° |
| 2026-04-11 12:20 | 18.98382 | 73.05917 | 48 ft | 51 kts | 263° |
| 2026-04-11 12:20 | 18.98427 | 73.05612 | 47 ft | 33 kts | 292° |
| 2026-04-11 12:20 | 18.98492 | 73.05408 | 47 ft | 20 kts | 270° |
| 2026-04-11 12:21 | 18.98586 | 73.05347 | 47 ft | 16 kts | 355° |
| 2026-04-11 12:21 | 18.98664 | 73.05283 | 47 ft | 12 kts | 332° |
| 2026-04-11 12:21 | 18.98727 | 73.05260 | 47 ft | 2 kts | 340° |
| 2026-04-11 12:21 | 18.98730 | 73.05258 | 47 ft | 0 kts | 341° |